Terminal Aerodrome Forecast
Issued by NWS

Home | Current Version | Previous Version | Text Only | Print | Product List | Glossary On
Versions: 1 2 3 4 5 6 7 8 9 10 11 12 13 14 15 16 17 18 19 20 21 22 23 24
000
FTUS44 KOUN 261120
TAFHBR
TAF
KHBR 261120Z 2612/2712 18005KT P6SM VCSH BKN070
     FM261800 17012KT P6SM BKN030
     FM270000 16012KT P6SM BKN030
     FM270800 16010KT 4SM BR BKN015=

USA.gov is the U.S. government's official web portal to all federal, state and local government web resources and services.